Time;durP1;ratioP1;P1;durP2;ratioP2;P2;SDS_P1;SDS_P2;PMS_P1;PMS_P2;Temp;Humidity;BMP_temperature;BMP_pressure;BME280_temperature;BME280_humidity;BME280_pressure;Samples;Min_cycle;Max_cycle;Signal;HPM_P1;HPM_P2
2022/07/08 00:00:37;;;;;;;0.10;0.10;;;13.30;99.90;;;;;;4985423;28;20519;-84
2022/07/08 00:03:02;;;;;;;0.10;0.10;;;13.20;99.90;;;;;;4970034;28;20201;-84
2022/07/08 00:05:28;;;;;;;0.10;0.10;;;13.30;99.90;;;;;;4985475;28;20263;-84
2022/07/08 00:07:53;;;;;;;0.10;0.10;;;13.20;99.90;;;;;;4972965;28;20181;-85
2022/07/08 00:10:19;;;;;;;0.10;0.10;;;13.10;99.90;;;;;;4987338;28;20780;-84
2022/07/08 00:12:45;;;;;;;0.10;0.10;;;13.10;99.90;;;;;;4985183;28;20212;-84
2022/07/08 00:15:11;;;;;;;0.10;0.10;;;13.10;99.90;;;;;;4967923;28;21027;-84
2022/07/08 00:17:37;;;;;;;0.10;0.10;;;13.00;99.90;;;;;;4985472;28;20188;-84
2022/07/08 00:20:04;;;;;;;0.17;0.17;;;13.00;99.90;;;;;;4984685;28;20459;-83
2022/07/08 00:22:29;;;;;;;0.10;0.10;;;13.00;99.90;;;;;;4988340;28;20475;-84
2022/07/08 00:24:55;;;;;;;0.10;0.10;;;13.00;99.90;;;;;;4986816;28;20476;-83
2022/07/08 00:27:20;;;;;;;0.10;0.10;;;13.10;99.90;;;;;;4985547;28;20192;-84
2022/07/08 00:29:46;;;;;;;0.10;0.10;;;13.00;99.90;;;;;;4987855;28;20193;-84
2022/07/08 00:32:12;;;;;;;0.10;0.10;;;13.00;99.90;;;;;;4987445;28;20707;-83
2022/07/08 00:34:37;;;;;;;0.10;0.10;;;12.90;99.90;;;;;;4988576;28;20196;-84
2022/07/08 00:37:03;;;;;;;0.10;0.10;;;13.00;99.90;;;;;;4966548;28;20279;-84
2022/07/08 00:39:29;;;;;;;0.10;0.10;;;13.00;99.90;;;;;;4986646;28;20189;-84
2022/07/08 00:41:55;;;;;;;0.20;0.20;;;13.00;99.90;;;;;;4970351;28;20304;-84
2022/07/08 00:44:20;;;;;;;0.20;0.20;;;12.90;99.90;;;;;;4983416;28;20950;-84
2022/07/08 00:46:46;;;;;;;0.13;0.13;;;12.90;99.90;;;;;;4982623;28;20199;-84
2022/07/08 00:49:12;;;;;;;0.20;0.20;;;12.80;99.90;;;;;;4987483;28;20238;-84
2022/07/08 00:51:39;;;;;;;0.10;0.10;;;12.80;99.90;;;;;;4968957;28;20181;-84
2022/07/08 00:54:05;;;;;;;0.10;0.10;;;12.80;99.90;;;;;;4985106;28;20936;-85
2022/07/08 00:56:31;;;;;;;0.10;0.10;;;12.80;99.90;;;;;;4983368;28;20444;-84
2022/07/08 00:58:56;;;;;;;0.10;0.10;;;12.80;99.90;;;;;;4987703;28;20294;-84
2022/07/08 01:01:22;;;;;;;0.10;0.10;;;12.70;99.90;;;;;;4982158;28;20269;-84
2022/07/08 01:03:48;;;;;;;0.10;0.10;;;12.70;99.90;;;;;;4969205;28;20216;-83
2022/07/08 01:06:13;;;;;;;0.20;0.20;;;12.70;99.90;;;;;;4983735;28;20661;-84
2022/07/08 01:08:39;;;;;;;0.10;0.10;;;12.70;99.90;;;;;;4967501;28;20185;-85
2022/07/08 01:11:09;;;;;;;0.10;0.10;;;12.60;99.90;;;;;;4984331;28;20199;-84
2022/07/08 01:13:35;;;;;;;0.10;0.10;;;12.60;99.90;;;;;;4984939;28;20446;-85
2022/07/08 01:16:00;;;;;;;0.10;0.10;;;12.60;99.90;;;;;;4984117;28;20448;-85
2022/07/08 01:18:28;;;;;;;0.10;0.10;;;12.60;99.90;;;;;;4969577;28;20471;-85
2022/07/08 01:20:54;;;;;;;0.20;0.20;;;12.60;99.90;;;;;;4969411;28;22214;-86
2022/07/08 01:23:20;;;;;;;0.10;0.10;;;12.50;99.90;;;;;;4986529;28;20518;-86
2022/07/08 01:25:46;;;;;;;0.10;0.10;;;12.50;99.90;;;;;;4969182;28;20491;-86
2022/07/08 01:28:12;;;;;;;0.10;0.10;;;12.60;99.90;;;;;;4987852;28;20200;-87
2022/07/08 01:30:37;;;;;;;0.20;0.20;;;12.50;99.90;;;;;;4978774;28;20447;-86
2022/07/08 01:33:03;;;;;;;0.10;0.10;;;12.50;99.90;;;;;;4987901;28;20201;-87
2022/07/08 01:35:28;;;;;;;0.20;0.20;;;12.40;99.90;;;;;;4991457;28;20627;-87
2022/07/08 01:37:54;;;;;;;0.10;0.10;;;12.50;99.90;;;;;;4988888;28;21094;-86
2022/07/08 01:40:20;;;;;;;0.20;0.20;;;12.40;99.90;;;;;;4991591;28;20719;-86
2022/07/08 01:42:45;;;;;;;0.20;0.20;;;12.50;99.90;;;;;;4971792;28;20221;-86
2022/07/08 01:45:11;;;;;;;0.10;0.10;;;12.50;99.90;;;;;;4970517;28;20220;-87
2022/07/08 01:47:37;;;;;;;0.20;0.20;;;12.50;99.90;;;;;;4993323;28;20193;-86
2022/07/08 01:50:03;;;;;;;0.10;0.10;;;12.50;99.90;;;;;;4990211;28;20230;-88
2022/07/08 01:52:28;;;;;;;0.10;0.10;;;12.50;99.90;;;;;;4989779;28;20674;-86
2022/07/08 01:54:54;;;;;;;0.10;0.10;;;12.50;99.90;;;;;;4987949;28;20494;-86
2022/07/08 01:57:21;;;;;;;0.20;0.20;;;12.40;99.90;;;;;;4991749;28;20256;-86
2022/07/08 01:59:48;;;;;;;0.20;0.20;;;12.30;99.90;;;;;;4988721;28;20320;-87
2022/07/08 02:02:16;;;;;;;0.20;0.20;;;12.30;99.90;;;;;;4973730;28;20444;-88
2022/07/08 02:04:41;;;;;;;0.10;0.10;;;12.30;99.90;;;;;;4986952;28;20586;-85
2022/07/08 02:07:07;;;;;;;0.20;0.20;;;12.30;99.90;;;;;;4986549;28;20542;-87
2022/07/08 02:09:35;;;;;;;0.10;0.10;;;12.40;99.90;;;;;;4986798;28;20204;-86
2022/07/08 02:12:19;;;;;;;0.20;0.20;;;12.30;99.90;;;;;;4991171;28;20204;-87
2022/07/08 02:14:53;;;;;;;0.20;0.20;;;12.30;99.90;;;;;;4972555;28;20455;-86
2022/07/08 02:17:21;;;;;;;0.10;0.10;;;12.20;99.90;;;;;;4988879;28;20505;-87
2022/07/08 02:19:48;;;;;;;0.20;0.20;;;12.20;99.90;;;;;;4990333;28;20527;-87
2022/07/08 02:22:14;;;;;;;0.10;0.10;;;12.20;99.90;;;;;;4990073;28;20611;-87
2022/07/08 02:24:40;;;;;;;0.10;0.10;;;12.20;99.90;;;;;;4969603;28;20499;-88
2022/07/08 02:27:06;;;;;;;0.20;0.20;;;12.20;99.90;;;;;;4987839;28;20480;-87
2022/07/08 02:29:32;;;;;;;0.10;0.10;;;12.20;99.90;;;;;;4989504;28;20657;-85
2022/07/08 02:31:58;;;;;;;0.20;0.20;;;12.20;99.90;;;;;;4988205;28;20482;-87
2022/07/08 02:34:24;;;;;;;0.20;0.20;;;12.30;99.90;;;;;;4969882;28;20897;-87
2022/07/08 02:36:50;;;;;;;0.10;0.10;;;12.20;99.90;;;;;;4973276;28;20523;-87
2022/07/08 02:39:15;;;;;;;0.10;0.10;;;12.20;99.90;;;;;;4988966;28;20650;-86
2022/07/08 02:41:42;;;;;;;0.10;0.10;;;12.30;99.90;;;;;;4968650;28;20200;-87
2022/07/08 02:44:08;;;;;;;0.10;0.10;;;12.30;99.90;;;;;;4988360;28;20186;-88
2022/07/08 02:46:34;;;;;;;0.20;0.20;;;12.30;99.90;;;;;;4969581;28;20503;-86
2022/07/08 02:49:00;;;;;;;0.20;0.20;;;12.30;99.90;;;;;;4992335;28;20189;-87
2022/07/08 02:51:25;;;;;;;0.10;0.10;;;12.30;99.90;;;;;;4987446;28;20448;-87
2022/07/08 02:53:51;;;;;;;0.20;0.20;;;12.30;99.90;;;;;;4972859;28;20641;-86
2022/07/08 02:56:16;;;;;;;0.10;0.10;;;12.30;99.90;;;;;;4988771;28;20752;-87
2022/07/08 02:58:42;;;;;;;0.10;0.10;;;12.30;99.90;;;;;;4986634;28;20205;-87
2022/07/08 03:01:08;;;;;;;0.10;0.10;;;12.50;99.90;;;;;;4968869;28;20276;-87
2022/07/08 03:03:33;;;;;;;0.10;0.10;;;12.50;99.90;;;;;;4991561;28;20271;-87
2022/07/08 03:05:59;;;;;;;0.20;0.20;;;12.50;99.90;;;;;;4991480;28;20291;-87
2022/07/08 03:08:24;;;;;;;0.10;0.10;;;12.50;99.90;;;;;;4987770;28;20200;-87
2022/07/08 03:10:50;;;;;;;0.10;0.10;;;12.40;99.90;;;;;;4989165;28;20205;-86
2022/07/08 03:13:16;;;;;;;0.10;0.10;;;12.50;99.90;;;;;;4987462;28;20219;-86
2022/07/08 03:15:41;;;;;;;0.20;0.20;;;12.40;99.90;;;;;;4985397;28;20186;-87
2022/07/08 03:18:07;;;;;;;0.10;0.10;;;12.40;99.90;;;;;;4970258;28;20217;-88
2022/07/08 03:20:33;;;;;;;0.20;0.20;;;12.40;99.90;;;;;;4987370;28;20193;-87
2022/07/08 03:22:59;;;;;;;0.10;0.10;;;12.40;99.90;;;;;;4991285;28;20327;-87
2022/07/08 03:25:24;;;;;;;0.10;0.10;;;12.40;99.90;;;;;;4987286;28;20602;-86
2022/07/08 03:27:50;;;;;;;0.10;0.10;;;12.40;99.90;;;;;;4981786;28;20259;-88
2022/07/08 03:30:15;;;;;;;0.10;0.10;;;12.30;99.90;;;;;;4986916;28;20200;-87
2022/07/08 03:32:41;;;;;;;0.20;0.20;;;12.40;99.90;;;;;;4988704;28;20248;-87
2022/07/08 03:35:07;;;;;;;0.10;0.10;;;12.30;99.90;;;;;;4970340;28;20189;-85
2022/07/08 03:37:33;;;;;;;0.10;0.10;;;12.40;99.90;;;;;;4989103;28;20253;-87
2022/07/08 03:41:19;;;;;;;0.10;0.10;;;12.40;99.90;;;;;;4988137;28;20877;-86
2022/07/08 03:42:47;;;;;;;0.10;0.10;;;12.50;99.90;;;;;;4982914;28;20247;-87
2022/07/08 03:45:12;;;;;;;0.10;0.10;;;12.40;99.90;;;;;;4986847;28;20495;-87
2022/07/08 03:47:38;;;;;;;0.10;0.10;;;12.40;99.90;;;;;;4985097;28;20255;-87
2022/07/08 03:50:04;;;;;;;0.20;0.20;;;12.50;99.90;;;;;;4987706;28;20259;-87
2022/07/08 03:52:29;;;;;;;0.10;0.10;;;12.50;99.90;;;;;;4987483;28;20189;-87
2022/07/08 03:54:55;;;;;;;0.20;0.20;;;12.40;99.90;;;;;;4987916;28;20449;-86
2022/07/08 03:57:21;;;;;;;0.10;0.10;;;12.50;99.90;;;;;;4983871;28;20720;-87
2022/07/08 03:59:46;;;;;;;0.20;0.20;;;12.50;99.90;;;;;;4967232;28;20212;-87
2022/07/08 04:02:12;;;;;;;0.10;0.10;;;12.40;99.90;;;;;;4986623;28;20207;-87
2022/07/08 04:04:37;;;;;;;0.10;0.10;;;12.50;99.90;;;;;;4967724;28;20225;-86
2022/07/08 04:07:03;;;;;;;0.10;0.10;;;12.40;99.90;;;;;;4985232;28;20319;-87
2022/07/08 04:09:28;;;;;;;0.20;0.20;;;12.40;99.90;;;;;;4987869;28;20254;-86
2022/07/08 04:11:54;;;;;;;0.10;0.10;;;12.50;99.90;;;;;;4982727;28;20216;-87
2022/07/08 04:14:19;;;;;;;0.10;0.10;;;12.50;99.90;;;;;;4988796;28;20197;-87
2022/07/08 04:16:45;;;;;;;0.10;0.10;;;12.50;99.90;;;;;;4985584;28;20177;-87
2022/07/08 04:19:10;;;;;;;0.20;0.20;;;12.50;99.90;;;;;;4987330;28;20208;-88
2022/07/08 04:21:36;;;;;;;0.10;0.10;;;12.50;99.90;;;;;;4969782;28;20186;-86
2022/07/08 04:24:01;;;;;;;0.10;0.10;;;12.60;99.90;;;;;;4988004;28;20189;-87
2022/07/08 04:26:31;;;;;;;0.10;0.10;;;12.60;99.90;;;;;;4985430;28;20188;-87
2022/07/08 04:28:58;;;;;;;0.20;0.20;;;12.70;99.90;;;;;;4968746;28;20193;-86
2022/07/08 04:31:23;;;;;;;0.10;0.10;;;12.70;99.90;;;;;;4984410;28;20514;-85
2022/07/08 04:33:49;;;;;;;0.10;0.10;;;12.70;99.90;;;;;;4990452;28;20812;-89
2022/07/08 04:36:14;;;;;;;0.10;0.10;;;12.80;99.90;;;;;;4985557;28;20193;-87
2022/07/08 04:38:40;;;;;;;0.10;0.10;;;12.80;99.90;;;;;;4983821;28;20192;-84
2022/07/08 04:41:05;;;;;;;0.10;0.10;;;12.80;99.90;;;;;;4964670;28;20188;-86
2022/07/08 04:43:31;;;;;;;0.10;0.10;;;12.80;99.90;;;;;;4990935;28;20308;-86
2022/07/08 04:45:56;;;;;;;0.10;0.10;;;12.90;99.90;;;;;;4982586;28;20707;-87
2022/07/08 04:48:22;;;;;;;0.10;0.10;;;12.90;99.90;;;;;;4988834;28;20194;-89
2022/07/08 04:50:47;;;;;;;0.10;0.10;;;12.90;99.90;;;;;;4986921;28;20333;-86
2022/07/08 04:53:13;;;;;;;0.10;0.10;;;13.00;99.90;;;;;;4988040;28;20213;-86
2022/07/08 04:55:38;;;;;;;0.20;0.20;;;13.10;99.90;;;;;;4986142;28;20634;-86
2022/07/08 04:58:04;;;;;;;0.10;0.10;;;13.10;99.90;;;;;;4989674;28;20208;-86
2022/07/08 05:00:31;;;;;;;0.10;0.10;;;13.20;99.90;;;;;;4984267;28;20189;-86
2022/07/08 05:02:57;;;;;;;0.20;0.20;;;13.20;99.90;;;;;;4980166;28;20440;-86
2022/07/08 05:05:23;;;;;;;0.10;0.10;;;13.20;99.90;;;;;;4981813;28;20491;-85
2022/07/08 05:07:49;;;;;;;0.10;0.10;;;13.30;99.90;;;;;;4962388;28;20665;-82
2022/07/08 05:10:22;;;;;;;0.10;0.10;;;13.30;99.90;;;;;;4982755;28;20595;-82
2022/07/08 05:12:48;;;;;;;0.10;0.10;;;13.50;99.90;;;;;;4986779;28;20822;-82
2022/07/08 05:15:14;;;;;;;0.20;0.20;;;13.50;99.90;;;;;;4984961;28;20451;-83
2022/07/08 05:17:40;;;;;;;0.10;0.10;;;13.60;99.90;;;;;;4987030;28;20513;-84
2022/07/08 05:20:09;;;;;;;0.20;0.20;;;13.70;99.90;;;;;;4986977;28;20294;-82
2022/07/08 05:22:36;;;;;;;0.10;0.10;;;13.70;99.90;;;;;;4986315;28;20251;-83
2022/07/08 05:25:03;;;;;;;0.10;0.10;;;13.80;99.90;;;;;;4984436;28;20475;-83
2022/07/08 05:27:29;;;;;;;0.10;0.10;;;13.90;99.90;;;;;;4966699;28;20990;-83
2022/07/08 05:29:55;;;;;;;0.10;0.10;;;14.10;99.90;;;;;;4985622;28;20456;-84
2022/07/08 05:32:20;;;;;;;0.10;0.10;;;14.30;99.90;;;;;;4985499;28;20805;-82
2022/07/08 05:34:46;;;;;;;0.10;0.10;;;14.40;99.90;;;;;;4980734;28;20523;-82
2022/07/08 05:37:11;;;;;;;0.10;0.10;;;14.40;99.90;;;;;;4986408;28;20186;-82
2022/07/08 05:39:41;;;;;;;0.10;0.10;;;14.40;99.90;;;;;;4986132;28;20192;-82
2022/07/08 05:42:08;;;;;;;0.10;0.10;;;14.60;99.90;;;;;;4988087;28;20948;-83
2022/07/08 05:44:34;;;;;;;0.10;0.10;;;14.50;99.90;;;;;;4985377;28;20468;-83
2022/07/08 05:47:00;;;;;;;0.10;0.10;;;14.70;99.90;;;;;;4986308;28;20526;-82
2022/07/08 05:49:26;;;;;;;0.10;0.10;;;14.70;99.90;;;;;;4978837;28;20948;-81
2022/07/08 05:51:51;;;;;;;0.10;0.10;;;14.70;99.90;;;;;;4974576;28;20204;-84
2022/07/08 05:54:17;;;;;;;0.10;0.10;;;14.80;99.90;;;;;;4988334;28;20280;-82
2022/07/08 05:56:42;;;;;;;0.10;0.10;;;14.80;99.90;;;;;;4988750;28;20201;-82
2022/07/08 05:59:08;;;;;;;0.10;0.10;;;14.70;99.90;;;;;;4986251;28;20279;-82
2022/07/08 06:01:33;;;;;;;0.10;0.10;;;14.70;99.90;;;;;;4987237;28;20194;-82
2022/07/08 06:03:59;;;;;;;0.10;0.10;;;14.70;99.90;;;;;;4986293;28;20189;-82
2022/07/08 06:06:24;;;;;;;0.10;0.10;;;14.70;99.90;;;;;;4986651;28;20220;-82
2022/07/08 06:08:50;;;;;;;0.10;0.10;;;14.80;99.90;;;;;;4988556;28;20191;-83
2022/07/08 06:11:20;;;;;;;0.20;0.20;;;14.80;99.90;;;;;;4986035;28;20211;-82
2022/07/08 06:13:46;;;;;;;0.10;0.10;;;14.70;99.90;;;;;;4964244;28;20184;-82
2022/07/08 06:16:11;;;;;;;0.10;0.10;;;14.70;99.90;;;;;;4987362;28;20448;-82
2022/07/08 06:18:37;;;;;;;0.10;0.10;;;14.80;99.90;;;;;;4986731;28;20213;-82
2022/07/08 06:21:02;;;;;;;0.10;0.10;;;14.70;99.90;;;;;;4992423;28;20622;-82
2022/07/08 06:23:28;;;;;;;0.10;0.10;;;14.70;99.90;;;;;;4989193;28;20720;-83
2022/07/08 06:25:54;;;;;;;0.10;0.10;;;14.70;99.90;;;;;;4990541;28;20221;-82
2022/07/08 06:28:19;;;;;;;0.10;0.10;;;14.70;99.90;;;;;;4970194;28;20452;-81
2022/07/08 06:30:45;;;;;;;0.10;0.10;;;14.60;99.90;;;;;;4977786;28;21845;-82
2022/07/08 06:33:11;;;;;;;0.10;0.10;;;14.60;99.90;;;;;;4985448;28;20248;-82
2022/07/08 06:35:37;;;;;;;0.10;0.10;;;14.60;99.90;;;;;;4989685;28;20284;-85
2022/07/08 06:38:03;;;;;;;0.10;0.10;;;14.60;99.90;;;;;;4967077;28;21031;-84
2022/07/08 06:40:28;;;;;;;0.10;0.10;;;14.50;99.90;;;;;;4983190;28;20541;-83
2022/07/08 06:42:54;;;;;;;0.10;0.10;;;14.60;99.90;;;;;;4979240;28;20713;-85
2022/07/08 06:45:19;;;;;;;0.10;0.10;;;14.60;99.90;;;;;;4981606;28;20331;-86
2022/07/08 06:47:45;;;;;;;0.10;0.10;;;14.60;99.90;;;;;;4986375;28;20189;-85
2022/07/08 06:50:11;;;;;;;0.10;0.10;;;14.60;99.90;;;;;;4988144;28;20649;-84
2022/07/08 06:52:37;;;;;;;0.10;0.10;;;14.50;99.90;;;;;;4972862;28;20963;-84
2022/07/08 06:55:03;;;;;;;0.10;0.10;;;14.50;99.90;;;;;;4986418;28;20537;-82
2022/07/08 06:57:29;;;;;;;0.10;0.10;;;14.50;99.90;;;;;;4987979;28;20448;-84
2022/07/08 06:59:55;;;;;;;0.10;0.10;;;14.60;99.90;;;;;;4988521;28;20510;-83
2022/07/08 07:02:21;;;;;;;0.10;0.10;;;14.50;99.90;;;;;;4985740;28;20440;-83
2022/07/08 07:04:47;;;;;;;0.10;0.10;;;14.50;99.90;;;;;;4972811;28;20227;-82
2022/07/08 07:07:12;;;;;;;0.10;0.10;;;14.50;99.90;;;;;;4986851;28;20630;-83
2022/07/08 07:09:38;;;;;;;0.10;0.10;;;14.60;99.90;;;;;;4972003;28;20193;-85
2022/07/08 07:12:05;;;;;;;0.10;0.10;;;14.60;99.90;;;;;;4989517;28;20196;-84
2022/07/08 07:14:31;;;;;;;0.10;0.10;;;14.60;99.90;;;;;;4991730;28;20490;-83
2022/07/08 07:16:57;;;;;;;0.10;0.10;;;14.60;99.90;;;;;;4986360;28;20448;-83
2022/07/08 07:19:22;;;;;;;0.10;0.10;;;14.60;99.90;;;;;;4982433;28;20193;-83
2022/07/08 07:21:48;;;;;;;0.10;0.10;;;14.60;99.90;;;;;;4988886;28;20243;-83
2022/07/08 07:24:13;;;;;;;0.10;0.10;;;14.70;99.90;;;;;;4985165;28;20652;-83
2022/07/08 07:26:39;;;;;;;0.10;0.10;;;14.70;99.90;;;;;;4983984;28;20248;-82
2022/07/08 07:29:05;;;;;;;0.10;0.10;;;14.80;99.90;;;;;;4988819;28;20271;-83
2022/07/08 07:31:30;;;;;;;0.10;0.10;;;14.80;99.90;;;;;;4990729;28;20624;-83
2022/07/08 07:33:56;;;;;;;0.10;0.10;;;14.80;99.90;;;;;;4990838;28;20556;-83
2022/07/08 07:36:21;;;;;;;0.10;0.10;;;14.90;99.90;;;;;;4989080;28;20259;-84
2022/07/08 07:38:47;;;;;;;0.10;0.10;;;15.00;99.90;;;;;;4989683;28;20193;-84
2022/07/08 07:41:12;;;;;;;0.10;0.10;;;15.20;99.90;;;;;;4988634;28;20201;-84
2022/07/08 07:43:38;;;;;;;0.10;0.10;;;15.20;99.90;;;;;;4990587;28;20707;-83
2022/07/08 07:46:04;;;;;;;0.10;0.10;;;15.30;99.90;;;;;;4971041;28;20232;-82
2022/07/08 07:48:29;;;;;;;0.10;0.10;;;15.40;99.90;;;;;;4984987;28;20196;-86
2022/07/08 07:50:55;;;;;;;0.10;0.10;;;15.40;99.90;;;;;;4978253;28;20225;-83
2022/07/08 07:53:21;;;;;;;0.10;0.10;;;15.30;99.90;;;;;;4983654;28;20186;-83
2022/07/08 07:55:46;;;;;;;0.10;0.10;;;15.20;99.90;;;;;;4985088;28;20220;-84
2022/07/08 07:58:12;;;;;;;0.10;0.10;;;15.10;99.90;;;;;;4981688;28;20668;-84
2022/07/08 08:00:37;;;;;;;0.10;0.10;;;15.00;99.90;;;;;;4987887;28;20185;-82
2022/07/08 08:03:03;;;;;;;0.10;0.10;;;15.00;99.90;;;;;;4972568;28;20200;-83
2022/07/08 08:05:29;;;;;;;0.10;0.10;;;15.00;99.90;;;;;;4990750;28;20592;-84
2022/07/08 08:07:55;;;;;;;0.10;0.10;;;15.00;99.90;;;;;;4990305;28;21386;-83
2022/07/08 08:10:20;;;;;;;0.10;0.10;;;15.00;99.90;;;;;;4989464;28;20673;-83
2022/07/08 08:12:46;;;;;;;0.10;0.10;;;15.10;99.90;;;;;;4989704;28;20177;-83
2022/07/08 08:15:12;;;;;;;0.10;0.10;;;15.20;99.90;;;;;;4982268;28;20653;-85
2022/07/08 08:17:41;;;;;;;0.10;0.10;;;15.10;99.90;;;;;;4991516;28;20634;-83
2022/07/08 08:20:09;;;;;;;0.10;0.10;;;15.20;99.90;;;;;;4987554;28;20460;-86
2022/07/08 08:22:35;;;;;;;0.10;0.10;;;15.10;99.90;;;;;;4971693;28;20506;-84
2022/07/08 08:25:02;;;;;;;0.10;0.10;;;15.10;99.90;;;;;;4988116;28;20953;-83
2022/07/08 08:27:28;;;;;;;0.10;0.10;;;15.20;99.90;;;;;;4987328;28;20878;-83
2022/07/08 08:29:53;;;;;;;0.10;0.10;;;15.20;99.90;;;;;;4972553;28;20543;-83
2022/07/08 08:32:19;;;;;;;0.10;0.10;;;15.20;99.90;;;;;;4969682;28;20197;-82
2022/07/08 08:34:44;;;;;;;0.10;0.10;;;15.50;99.90;;;;;;4969027;28;20200;-82
2022/07/08 08:37:10;;;;;;;0.10;0.10;;;15.50;99.90;;;;;;4984740;28;20679;-82
2022/07/08 08:39:36;;;;;;;0.10;0.10;;;15.50;99.90;;;;;;4985170;28;20668;-85
2022/07/08 08:42:02;;;;;;;0.10;0.10;;;15.40;99.90;;;;;;4983882;28;20452;-83
2022/07/08 08:44:29;;;;;;;0.10;0.10;;;15.40;99.90;;;;;;4989268;28;20189;-83
2022/07/08 08:46:56;;;;;;;0.10;0.10;;;15.40;99.90;;;;;;4989919;28;20273;-83
2022/07/08 08:49:22;;;;;;;0.10;0.10;;;15.50;99.90;;;;;;4967132;28;20445;-84
2022/07/08 08:51:49;;;;;;;0.10;0.10;;;15.50;99.90;;;;;;4982248;28;20444;-82
2022/07/08 08:54:17;;;;;;;0.10;0.10;;;15.60;99.90;;;;;;4982666;28;20453;-85
2022/07/08 08:56:45;;;;;;;0.10;0.10;;;15.60;99.90;;;;;;4968160;28;20474;-86
2022/07/08 08:59:12;;;;;;;0.10;0.10;;;15.50;99.90;;;;;;4986336;28;20463;-83
2022/07/08 09:01:38;;;;;;;0.10;0.10;;;15.50;99.90;;;;;;4988744;28;20495;-84
2022/07/08 09:04:10;;;;;;;0.10;0.10;;;15.60;99.90;;;;;;4980944;28;20481;-84
2022/07/08 09:06:39;;;;;;;0.10;0.10;;;15.80;99.90;;;;;;4980638;28;20483;-85
2022/07/08 09:09:05;;;;;;;0.10;0.10;;;16.10;99.90;;;;;;4986198;28;20959;-84
2022/07/08 09:11:33;;;;;;;0.10;0.10;;;16.20;99.90;;;;;;4987462;28;20486;-86
2022/07/08 09:14:15;;;;;;;0.10;0.10;;;16.40;99.90;;;;;;4987740;28;20444;-84
2022/07/08 09:16:41;;;;;;;0.10;0.10;;;16.60;99.90;;;;;;4985128;28;20515;-83
2022/07/08 09:19:14;;;;;;;0.10;0.10;;;16.60;99.90;;;;;;4988219;28;20959;-84
2022/07/08 09:21:52;;;;;;;0.10;0.10;;;17.00;99.90;;;;;;4987592;28;21196;-85
2022/07/08 09:24:19;;;;;;;0.10;0.10;;;17.10;99.90;;;;;;4980264;28;21042;-86
2022/07/08 09:26:45;;;;;;;0.10;0.10;;;17.40;99.90;;;;;;4985498;28;20479;-87
2022/07/08 09:29:10;;;;;;;0.10;0.10;;;17.50;99.90;;;;;;4981871;28;20471;-85
2022/07/08 09:31:36;;;;;;;0.10;0.10;;;17.90;99.90;;;;;;4965236;28;20216;-86
2022/07/08 09:34:09;;;;;;;0.10;0.00;;;17.90;99.90;;;;;;4968435;28;20280;-85
2022/07/08 09:36:46;;;;;;;0.10;0.00;;;18.00;99.90;;;;;;4984534;28;20195;-85
2022/07/08 09:39:28;;;;;;;0.10;0.10;;;17.90;99.90;;;;;;4985396;28;20526;-86
2022/07/08 09:41:53;;;;;;;0.10;0.00;;;17.80;99.90;;;;;;4985116;28;20487;-85
2022/07/08 09:44:22;;;;;;;0.10;0.10;;;17.80;99.90;;;;;;4968658;28;21034;-85
2022/07/08 09:46:49;;;;;;;0.10;0.10;;;17.80;99.90;;;;;;4987082;28;20448;-87
2022/07/08 09:49:31;;;;;;;0.10;0.00;;;17.60;99.90;;;;;;4986410;28;20452;-85
2022/07/08 09:51:57;;;;;;;0.10;0.00;;;17.40;99.90;;;;;;4986147;28;20534;-84
2022/07/08 09:54:24;;;;;;;0.10;0.00;;;17.10;99.90;;;;;;4970674;28;20447;-87
2022/07/08 09:57:04;;;;;;;0.10;0.10;;;17.20;99.90;;;;;;4990720;28;20463;-88
2022/07/08 09:59:31;;;;;;;0.10;0.10;;;17.10;99.90;;;;;;4974080;28;20514;-87
2022/07/08 10:01:58;;;;;;;0.10;0.10;;;17.30;99.90;;;;;;4989045;28;20455;-86
2022/07/08 10:04:24;;;;;;;0.10;0.10;;;17.30;99.90;;;;;;4973670;28;20494;-87
2022/07/08 10:06:50;;;;;;;0.10;0.10;;;17.50;99.90;;;;;;4983853;28;22399;-87
2022/07/08 10:09:16;;;;;;;0.10;0.10;;;17.40;99.90;;;;;;4990406;28;20440;-89
2022/07/08 10:11:43;;;;;;;0.10;0.10;;;17.40;99.90;;;;;;4989591;28;20452;-86
2022/07/08 10:14:09;;;;;;;0.10;0.10;;;18.10;99.90;;;;;;4989627;28;20458;-86
2022/07/08 10:16:36;;;;;;;0.10;0.10;;;19.10;99.90;;;;;;4992476;28;20952;-87
2022/07/08 10:19:05;;;;;;;0.10;0.00;;;19.50;99.90;;;;;;4990041;28;20192;-85
2022/07/08 10:21:32;;;;;;;0.10;0.00;;;19.30;99.90;;;;;;4979548;28;20448;-83
2022/07/08 10:23:58;;;;;;;0.10;0.10;;;19.90;99.90;;;;;;4989574;28;20444;-86
2022/07/08 10:26:31;;;;;;;0.10;0.00;;;20.30;99.90;;;;;;4969919;28;20494;-83
2022/07/08 10:29:08;;;;;;;0.10;0.10;;;20.70;99.90;;;;;;4992776;28;20283;-86
2022/07/08 10:31:43;;;;;;;0.10;0.00;;;20.50;99.90;;;;;;4985344;28;20441;-85
2022/07/08 10:34:15;;;;;;;0.10;0.00;;;20.30;99.90;;;;;;4984241;28;20579;-85
2022/07/08 10:36:50;;;;;;;0.10;0.00;;;20.00;99.90;;;;;;4966686;28;20475;-84
2022/07/08 10:39:27;;;;;;;0.10;0.00;;;19.90;99.90;;;;;;4985088;28;20501;-86
2022/07/08 10:41:57;;;;;;;0.10;0.00;;;19.40;99.90;;;;;;4987220;28;21033;-86
2022/07/08 10:44:42;;;;;;;0.10;0.00;;;20.00;99.90;;;;;;4990112;28;20557;-84
2022/07/08 10:47:12;;;;;;;0.10;0.00;;;21.00;99.90;;;;;;4985267;28;20447;-85
2022/07/08 10:49:41;;;;;;;0.10;0.00;;;20.80;99.90;;;;;;4987828;28;20448;-84
2022/07/08 10:52:07;;;;;;;0.10;0.00;;;20.40;99.90;;;;;;4986921;28;20459;-84
2022/07/08 10:54:37;;;;;;;0.10;0.00;;;21.20;99.90;;;;;;4985354;28;20440;-85
2022/07/08 10:57:14;;;;;;;0.10;0.00;;;22.00;99.90;;;;;;4979574;28;20231;-85
2022/07/08 10:59:40;;;;;;;0.10;0.00;;;22.90;99.90;;;;;;4989691;28;20448;-88
2022/07/08 11:02:07;;;;;;;0.10;0.00;;;23.20;99.90;;;;;;4980163;28;20504;-86
2022/07/08 11:04:36;;;;;;;0.10;0.10;;;24.10;99.90;;;;;;4967102;28;21879;-87
2022/07/08 11:07:26;;;;;;;0.10;0.00;;;24.10;99.90;;;;;;4989201;28;20452;-87
2022/07/08 11:10:05;;;;;;;0.10;0.00;;;23.80;99.90;;;;;;4967040;28;20510;-85
2022/07/08 11:12:33;;;;;;;0.10;0.00;;;23.20;99.90;;;;;;4974445;28;20448;-83
2022/07/08 11:15:00;;;;;;;0.10;0.00;;;24.40;99.90;;;;;;4983122;28;20453;-84
2022/07/08 11:17:28;;;;;;;0.10;0.00;;;23.10;99.90;;;;;;4991798;28;20447;-87
2022/07/08 11:19:56;;;;;;;0.10;0.00;;;22.80;99.90;;;;;;4969957;28;20611;-85
2022/07/08 11:22:23;;;;;;;0.10;0.00;;;22.60;99.90;;;;;;4991109;28;20464;-85
2022/07/08 11:24:50;;;;;;;0.10;0.00;;;22.40;99.90;;;;;;4968508;28;20474;-86
2022/07/08 11:27:16;;;;;;;0.10;0.00;;;22.70;99.90;;;;;;4991238;28;20948;-88
2022/07/08 11:29:49;;;;;;;0.10;0.00;;;22.40;99.90;;;;;;4971929;28;20502;-87
2022/07/08 11:32:18;;;;;;;0.10;0.00;;;22.40;99.90;;;;;;4972548;28;20853;-88
2022/07/08 11:34:48;;;;;;;0.10;0.00;;;23.20;99.90;;;;;;4986888;28;20992;-87
2022/07/08 11:37:14;;;;;;;0.10;0.00;;;23.10;99.90;;;;;;4972730;28;20990;-88
2022/07/08 11:39:42;;;;;;;0.10;0.00;;;22.10;99.90;;;;;;4968539;28;20444;-86
2022/07/08 11:42:09;;;;;;;0.10;0.00;;;22.80;99.90;;;;;;4988331;28;20468;-86
2022/07/08 11:44:35;;;;;;;0.10;0.00;;;24.00;99.90;;;;;;4987781;28;20456;-85
2022/07/08 11:47:00;;;;;;;0.10;0.00;;;25.20;99.90;;;;;;4985662;28;20457;-87
2022/07/08 11:49:26;;;;;;;0.10;0.00;;;25.80;99.90;;;;;;4990481;28;20443;-85
2022/07/08 11:51:56;;;;;;;0.10;0.00;;;25.30;99.90;;;;;;4974802;28;20571;-84
2022/07/08 11:54:27;;;;;;;0.10;0.00;;;24.30;99.90;;;;;;4983463;28;20181;-85
2022/07/08 11:56:54;;;;;;;0.10;0.00;;;24.00;99.90;;;;;;4991612;28;21050;-88
2022/07/08 11:59:21;;;;;;;0.10;0.00;;;24.70;99.90;;;;;;4972437;28;20472;-84
2022/07/08 12:01:48;;;;;;;0.10;0.00;;;23.80;99.90;;;;;;4986601;28;20458;-85
2022/07/08 12:04:13;;;;;;;0.10;0.00;;;24.20;99.90;;;;;;4973008;28;21009;-84
2022/07/08 12:06:48;;;;;;;0.10;0.00;;;23.60;99.90;;;;;;4976105;28;20492;-85
2022/07/08 12:09:15;;;;;;;0.10;0.00;;;23.80;99.90;;;;;;4992370;28;20197;-84
2022/07/08 12:11:43;;;;;;;0.10;0.00;;;23.90;99.90;;;;;;4989226;28;20448;-84
2022/07/08 12:14:09;;;;;;;0.10;0.00;;;23.90;99.90;;;;;;4988425;28;20880;-84
2022/07/08 12:16:43;;;;;;;0.00;0.00;;;24.30;99.90;;;;;;4971145;28;20800;-83
2022/07/08 12:19:29;;;;;;;0.00;0.00;;;25.30;99.90;;;;;;4981371;28;20450;-84
2022/07/08 12:21:56;;;;;;;0.00;0.00;;;25.30;99.90;;;;;;4989014;28;20538;-84
2022/07/08 12:24:46;;;;;;;0.00;0.00;;;25.20;99.90;;;;;;4988687;28;20483;-85
2022/07/08 12:27:18;;;;;;;0.00;0.00;;;24.50;99.90;;;;;;4985464;28;20978;-85
2022/07/08 12:29:44;;;;;;;0.00;0.00;;;24.70;99.90;;;;;;4990985;28;20972;-84
2022/07/08 12:32:11;;;;;;;0.00;0.00;;;25.30;99.90;;;;;;4982037;28;20444;-86
2022/07/08 12:34:37;;;;;;;0.00;0.00;;;24.40;99.90;;;;;;4967311;28;20777;-86
2022/07/08 12:37:13;;;;;;;0.00;0.00;;;23.90;99.90;;;;;;4981903;28;20480;-84
2022/07/08 12:39:39;;;;;;;0.00;0.00;;;23.20;99.90;;;;;;4979353;28;20445;-88
2022/07/08 12:42:05;;;;;;;0.00;0.00;;;24.50;99.90;;;;;;4970695;28;20448;-87
2022/07/08 12:44:39;;;;;;;0.00;0.00;;;23.70;99.90;;;;;;4980946;28;20189;-81
2022/07/08 12:47:09;;;;;;;0.00;0.00;;;24.50;99.90;;;;;;4979353;28;20459;-83